Red Wing, Minnesota
Current Conditions -  °F | °C
As of 6:51 AM on Saturday 20 Dec 2014 (Local Time) from KRGK Reporting Station
Broken Clouds Broken Clouds  
Wind Chill: -5°   Ceiling: 1300
Heat Index: -2°   Visibility: 7mi
Dew Point: -4°   Wind: 5mph
Humidity: 86%   Direction: 140°SE
Pressure: 30.17"   Gusts: NA
Location:  44.57°N, 92.53°W
Report Text: KRGK 201251Z AUTO 14004KT 7SM BKN013 M02/M04 A3017 RMK AO2
Loading
Personal Weather Stations






























Interactive Weather Map New forecast layout! Learn more

10-Day Weather Forecast

Advertisements
Track Severe Weather on mobile